sensor_id;sensor_type;location;lat;lon;timestamp;P1;durP1;ratioP1;P2;durP2;ratioP2
47617;SDS011;33336;36.728;-4.414;2022-11-12T00:00:14;9.50;;;3.80;;
47617;SDS011;33336;36.728;-4.414;2022-11-12T00:05:20;15.27;;;3.85;;
47617;SDS011;33336;36.728;-4.414;2022-11-12T00:10:24;11.00;;;2.55;;
47617;SDS011;33336;36.728;-4.414;2022-11-12T00:15:29;18.13;;;3.33;;
47617;SDS011;33336;36.728;-4.414;2022-11-12T00:20:32;18.38;;;4.10;;
47617;SDS011;33336;36.728;-4.414;2022-11-12T00:25:35;15.48;;;3.92;;
47617;SDS011;33336;36.728;-4.414;2022-11-12T00:30:39;9.23;;;3.08;;
47617;SDS011;33336;36.728;-4.414;2022-11-12T00:35:42;24.98;;;4.35;;
47617;SDS011;33336;36.728;-4.414;2022-11-12T00:40:46;17.38;;;3.45;;
47617;SDS011;33336;36.728;-4.414;2022-11-12T00:45:50;13.18;;;3.17;;
47617;SDS011;33336;36.728;-4.414;2022-11-12T00:50:58;19.63;;;3.63;;
47617;SDS011;33336;36.728;-4.414;2022-11-12T00:56:02;18.75;;;3.60;;
47617;SDS011;33336;36.728;-4.414;2022-11-12T01:01:08;17.60;;;3.15;;
47617;SDS011;33336;36.728;-4.414;2022-11-12T01:11:18;12.75;;;3.00;;
47617;SDS011;33336;36.728;-4.414;2022-11-12T01:16:23;14.60;;;3.53;;
47617;SDS011;33336;36.728;-4.414;2022-11-12T01:21:28;15.43;;;3.33;;
47617;SDS011;33336;36.728;-4.414;2022-11-12T01:26:32;20.38;;;3.72;;
47617;SDS011;33336;36.728;-4.414;2022-11-12T01:31:37;11.80;;;3.40;;
47617;SDS011;33336;36.728;-4.414;2022-11-12T01:36:40;18.23;;;3.78;;
47617;SDS011;33336;36.728;-4.414;2022-11-12T01:41:43;18.40;;;4.93;;
47617;SDS011;33336;36.728;-4.414;2022-11-12T01:46:52;19.60;;;4.57;;
47617;SDS011;33336;36.728;-4.414;2022-11-12T01:52:05;15.77;;;3.65;;
47617;SDS011;33336;36.728;-4.414;2022-11-12T01:57:13;12.18;;;4.30;;
47617;SDS011;33336;36.728;-4.414;2022-11-12T02:02:19;16.38;;;4.38;;
47617;SDS011;33336;36.728;-4.414;2022-11-12T02:07:23;19.42;;;4.05;;
47617;SDS011;33336;36.728;-4.414;2022-11-12T02:12:27;18.20;;;5.20;;
47617;SDS011;33336;36.728;-4.414;2022-11-12T02:17:49;12.43;;;3.67;;
47617;SDS011;33336;36.728;-4.414;2022-11-12T02:22:53;20.63;;;3.83;;
47617;SDS011;33336;36.728;-4.414;2022-11-12T02:27:57;29.70;;;4.65;;
47617;SDS011;33336;36.728;-4.414;2022-11-12T02:33:01;17.02;;;4.72;;
47617;SDS011;33336;36.728;-4.414;2022-11-12T02:38:06;22.52;;;4.75;;
47617;SDS011;33336;36.728;-4.414;2022-11-12T02:43:10;14.98;;;4.95;;
47617;SDS011;33336;36.728;-4.414;2022-11-12T02:48:13;18.52;;;4.40;;
47617;SDS011;33336;36.728;-4.414;2022-11-12T02:53:17;19.98;;;4.03;;
47617;SDS011;33336;36.728;-4.414;2022-11-12T02:58:20;20.95;;;4.20;;
47617;SDS011;33336;36.728;-4.414;2022-11-12T03:03:24;16.55;;;4.15;;
47617;SDS011;33336;36.728;-4.414;2022-11-12T03:08:28;15.63;;;4.32;;
47617;SDS011;33336;36.728;-4.414;2022-11-12T03:13:31;27.77;;;4.95;;
47617;SDS011;33336;36.728;-4.414;2022-11-12T03:18:34;26.67;;;5.78;;
47617;SDS011;33336;36.728;-4.414;2022-11-12T03:23:38;23.52;;;4.80;;
47617;SDS011;33336;36.728;-4.414;2022-11-12T03:28:41;19.77;;;4.07;;
47617;SDS011;33336;36.728;-4.414;2022-11-12T03:33:45;21.17;;;4.45;;
47617;SDS011;33336;36.728;-4.414;2022-11-12T03:38:49;28.90;;;4.63;;
47617;SDS011;33336;36.728;-4.414;2022-11-12T03:43:52;19.65;;;4.88;;
47617;SDS011;33336;36.728;-4.414;2022-11-12T03:48:55;27.10;;;4.85;;
47617;SDS011;33336;36.728;-4.414;2022-11-12T03:54:00;20.60;;;4.28;;
47617;SDS011;33336;36.728;-4.414;2022-11-12T03:59:03;26.05;;;4.32;;
47617;SDS011;33336;36.728;-4.414;2022-11-12T04:04:08;24.73;;;5.20;;
47617;SDS011;33336;36.728;-4.414;2022-11-12T04:09:12;27.42;;;4.80;;
47617;SDS011;33336;36.728;-4.414;2022-11-12T04:14:16;31.98;;;6.05;;
47617;SDS011;33336;36.728;-4.414;2022-11-12T04:19:19;30.30;;;4.78;;
47617;SDS011;33336;36.728;-4.414;2022-11-12T04:24:41;28.95;;;5.63;;
47617;SDS011;33336;36.728;-4.414;2022-11-12T04:30:02;29.85;;;5.15;;
47617;SDS011;33336;36.728;-4.414;2022-11-12T04:35:19;25.63;;;5.63;;
47617;SDS011;33336;36.728;-4.414;2022-11-12T04:40:25;19.80;;;5.88;;
47617;SDS011;33336;36.728;-4.414;2022-11-12T04:45:47;30.13;;;4.75;;
47617;SDS011;33336;36.728;-4.414;2022-11-12T04:50:53;32.58;;;6.82;;
47617;SDS011;33336;36.728;-4.414;2022-11-12T04:55:59;36.80;;;5.85;;
47617;SDS011;33336;36.728;-4.414;2022-11-12T05:01:02;35.13;;;5.38;;
47617;SDS011;33336;36.728;-4.414;2022-11-12T05:06:05;37.03;;;6.20;;
47617;SDS011;33336;36.728;-4.414;2022-11-12T05:11:31;36.00;;;5.22;;
47617;SDS011;33336;36.728;-4.414;2022-11-12T05:16:34;47.92;;;5.93;;
47617;SDS011;33336;36.728;-4.414;2022-11-12T05:21:37;45.10;;;6.47;;
47617;SDS011;33336;36.728;-4.414;2022-11-12T05:26:59;35.95;;;6.57;;
47617;SDS011;33336;36.728;-4.414;2022-11-12T05:32:02;29.63;;;6.25;;
47617;SDS011;33336;36.728;-4.414;2022-11-12T05:37:06;51.60;;;9.15;;
47617;SDS011;33336;36.728;-4.414;2022-11-12T05:42:12;43.85;;;7.20;;
47617;SDS011;33336;36.728;-4.414;2022-11-12T05:47:15;45.78;;;6.53;;
47617;SDS011;33336;36.728;-4.414;2022-11-12T05:52:18;43.40;;;8.27;;
47617;SDS011;33336;36.728;-4.414;2022-11-12T05:57:22;44.20;;;7.10;;
47617;SDS011;33336;36.728;-4.414;2022-11-12T06:02:28;39.30;;;6.43;;
47617;SDS011;33336;36.728;-4.414;2022-11-12T06:07:31;57.10;;;11.02;;
47617;SDS011;33336;36.728;-4.414;2022-11-12T06:12:35;48.25;;;7.22;;
47617;SDS011;33336;36.728;-4.414;2022-11-12T06:17:39;56.50;;;8.48;;
47617;SDS011;33336;36.728;-4.414;2022-11-12T06:22:43;45.53;;;7.63;;
47617;SDS011;33336;36.728;-4.414;2022-11-12T06:27:47;40.83;;;7.63;;
47617;SDS011;33336;36.728;-4.414;2022-11-12T06:32:50;45.55;;;9.88;;
47617;SDS011;33336;36.728;-4.414;2022-11-12T06:37:54;41.72;;;8.07;;
47617;SDS011;33336;36.728;-4.414;2022-11-12T06:43:01;50.67;;;8.68;;
47617;SDS011;33336;36.728;-4.414;2022-11-12T06:48:08;53.50;;;9.73;;
47617;SDS011;33336;36.728;-4.414;2022-11-12T06:53:11;56.03;;;9.23;;
47617;SDS011;33336;36.728;-4.414;2022-11-12T06:58:15;53.97;;;8.77;;
47617;SDS011;33336;36.728;-4.414;2022-11-12T07:03:18;50.15;;;8.55;;
47617;SDS011;33336;36.728;-4.414;2022-11-12T07:08:21;56.97;;;9.38;;
47617;SDS011;33336;36.728;-4.414;2022-11-12T07:13:25;46.17;;;8.13;;
47617;SDS011;33336;36.728;-4.414;2022-11-12T07:18:31;42.13;;;9.25;;
47617;SDS011;33336;36.728;-4.414;2022-11-12T07:23:35;55.60;;;8.85;;
47617;SDS011;33336;36.728;-4.414;2022-11-12T07:28:40;49.13;;;8.63;;
47617;SDS011;33336;36.728;-4.414;2022-11-12T07:33:44;46.42;;;10.82;;
47617;SDS011;33336;36.728;-4.414;2022-11-12T07:38:49;54.47;;;9.45;;
47617;SDS011;33336;36.728;-4.414;2022-11-12T07:43:55;47.15;;;9.80;;
47617;SDS011;33336;36.728;-4.414;2022-11-12T07:48:58;47.00;;;9.35;;
47617;SDS011;33336;36.728;-4.414;2022-11-12T07:54:01;44.72;;;9.52;;
47617;SDS011;33336;36.728;-4.414;2022-11-12T07:59:06;71.50;;;11.18;;
47617;SDS011;33336;36.728;-4.414;2022-11-12T08:04:09;48.97;;;10.43;;
47617;SDS011;33336;36.728;-4.414;2022-11-12T08:09:14;48.70;;;10.20;;
47617;SDS011;33336;36.728;-4.414;2022-11-12T08:14:19;55.28;;;10.55;;
47617;SDS011;33336;36.728;-4.414;2022-11-12T08:19:23;61.75;;;12.15;;
47617;SDS011;33336;36.728;-4.414;2022-11-12T08:24:26;58.83;;;9.13;;
47617;SDS011;33336;36.728;-4.414;2022-11-12T08:29:30;58.35;;;10.48;;
47617;SDS011;33336;36.728;-4.414;2022-11-12T08:34:33;64.22;;;10.40;;
47617;SDS011;33336;36.728;-4.414;2022-11-12T08:39:41;47.58;;;9.93;;
47617;SDS011;33336;36.728;-4.414;2022-11-12T08:44:45;57.13;;;11.57;;
47617;SDS011;33336;36.728;-4.414;2022-11-12T08:49:49;69.22;;;10.68;;
47617;SDS011;33336;36.728;-4.414;2022-11-12T08:54:52;57.20;;;11.57;;
47617;SDS011;33336;36.728;-4.414;2022-11-12T08:59:59;47.80;;;10.95;;
47617;SDS011;33336;36.728;-4.414;2022-11-12T09:05:02;61.15;;;12.60;;
47617;SDS011;33336;36.728;-4.414;2022-11-12T09:10:07;56.58;;;13.30;;
47617;SDS011;33336;36.728;-4.414;2022-11-12T09:15:12;43.00;;;9.90;;
47617;SDS011;33336;36.728;-4.414;2022-11-12T09:20:15;54.47;;;10.57;;
47617;SDS011;33336;36.728;-4.414;2022-11-12T09:25:18;45.20;;;8.73;;
47617;SDS011;33336;36.728;-4.414;2022-11-12T09:30:22;62.30;;;9.90;;
47617;SDS011;33336;36.728;-4.414;2022-11-12T09:35:25;52.45;;;10.00;;
47617;SDS011;33336;36.728;-4.414;2022-11-12T09:40:31;44.88;;;7.15;;
47617;SDS011;33336;36.728;-4.414;2022-11-12T09:45:43;45.50;;;7.68;;
47617;SDS011;33336;36.728;-4.414;2022-11-12T09:50:53;38.38;;;7.25;;
47617;SDS011;33336;36.728;-4.414;2022-11-12T09:55:59;46.00;;;8.23;;
47617;SDS011;33336;36.728;-4.414;2022-11-12T10:01:11;41.70;;;7.07;;
47617;SDS011;33336;36.728;-4.414;2022-11-12T10:06:17;38.35;;;7.78;;
47617;SDS011;33336;36.728;-4.414;2022-11-12T10:17:24;40.53;;;7.60;;
47617;SDS011;33336;36.728;-4.414;2022-11-12T10:22:39;27.73;;;5.85;;
47617;SDS011;33336;36.728;-4.414;2022-11-12T10:28:00;32.90;;;6.53;;
47617;SDS011;33336;36.728;-4.414;2022-11-12T10:33:12;30.95;;;5.18;;
47617;SDS011;33336;36.728;-4.414;2022-11-12T10:38:17;45.03;;;7.40;;
47617;SDS011;33336;36.728;-4.414;2022-11-12T10:43:27;41.42;;;6.68;;
47617;SDS011;33336;36.728;-4.414;2022-11-12T10:48:31;34.28;;;6.65;;
47617;SDS011;33336;36.728;-4.414;2022-11-12T10:53:36;32.97;;;5.03;;
47617;SDS011;33336;36.728;-4.414;2022-11-12T10:58:40;31.63;;;6.05;;
47617;SDS011;33336;36.728;-4.414;2022-11-12T11:03:46;29.38;;;5.60;;
47617;SDS011;33336;36.728;-4.414;2022-11-12T11:09:07;23.30;;;5.93;;
47617;SDS011;33336;36.728;-4.414;2022-11-12T11:14:23;28.75;;;5.35;;
47617;SDS011;33336;36.728;-4.414;2022-11-12T11:19:34;32.55;;;4.85;;
47617;SDS011;33336;36.728;-4.414;2022-11-12T11:24:42;23.80;;;4.05;;
47617;SDS011;33336;36.728;-4.414;2022-11-12T11:30:00;34.92;;;6.03;;
47617;SDS011;33336;36.728;-4.414;2022-11-12T11:35:13;25.92;;;3.75;;
47617;SDS011;33336;36.728;-4.414;2022-11-12T11:40:25;22.67;;;4.20;;
47617;SDS011;33336;36.728;-4.414;2022-11-12T11:45:32;15.77;;;3.40;;
47617;SDS011;33336;36.728;-4.414;2022-11-12T11:50:54;24.27;;;5.13;;
47617;SDS011;33336;36.728;-4.414;2022-11-12T11:56:01;23.00;;;3.95;;
47617;SDS011;33336;36.728;-4.414;2022-11-12T12:01:08;27.73;;;4.38;;
47617;SDS011;33336;36.728;-4.414;2022-11-12T12:06:22;22.88;;;4.00;;
47617;SDS011;33336;36.728;-4.414;2022-11-12T12:11:29;19.35;;;4.05;;
47617;SDS011;33336;36.728;-4.414;2022-11-12T12:22:09;22.83;;;5.15;;
47617;SDS011;33336;36.728;-4.414;2022-11-12T12:27:17;29.73;;;5.03;;
47617;SDS011;33336;36.728;-4.414;2022-11-12T12:32:24;31.77;;;6.53;;
47617;SDS011;33336;36.728;-4.414;2022-11-12T12:37:32;29.33;;;5.03;;
47617;SDS011;33336;36.728;-4.414;2022-11-12T12:42:42;32.17;;;4.68;;
47617;SDS011;33336;36.728;-4.414;2022-11-12T12:47:49;22.75;;;4.90;;
47617;SDS011;33336;36.728;-4.414;2022-11-12T12:53:01;23.50;;;4.50;;
47617;SDS011;33336;36.728;-4.414;2022-11-12T12:58:14;21.83;;;5.05;;
47617;SDS011;33336;36.728;-4.414;2022-11-12T13:08:49;26.67;;;4.15;;
47617;SDS011;33336;36.728;-4.414;2022-11-12T13:13:55;19.10;;;5.03;;
47617;SDS011;33336;36.728;-4.414;2022-11-12T13:19:25;15.15;;;3.95;;
47617;SDS011;33336;36.728;-4.414;2022-11-12T13:30:06;21.75;;;5.28;;
47617;SDS011;33336;36.728;-4.414;2022-11-12T13:35:19;23.55;;;5.40;;
47617;SDS011;33336;36.728;-4.414;2022-11-12T13:45:39;17.70;;;3.78;;
47617;SDS011;33336;36.728;-4.414;2022-11-12T13:50:48;22.38;;;5.10;;
47617;SDS011;33336;36.728;-4.414;2022-11-12T14:01:00;21.10;;;3.85;;
47617;SDS011;33336;36.728;-4.414;2022-11-12T14:06:06;24.25;;;5.28;;
47617;SDS011;33336;36.728;-4.414;2022-11-12T14:11:25;24.95;;;4.93;;
47617;SDS011;33336;36.728;-4.414;2022-11-12T14:16:43;29.10;;;5.22;;
47617;SDS011;33336;36.728;-4.414;2022-11-12T14:22:06;23.52;;;4.47;;
47617;SDS011;33336;36.728;-4.414;2022-11-12T14:27:31;32.13;;;5.20;;
47617;SDS011;33336;36.728;-4.414;2022-11-12T14:32:36;19.38;;;4.38;;
47617;SDS011;33336;36.728;-4.414;2022-11-12T14:37:39;24.30;;;5.30;;
47617;SDS011;33336;36.728;-4.414;2022-11-12T14:42:51;19.67;;;3.95;;
47617;SDS011;33336;36.728;-4.414;2022-11-12T14:47:55;27.37;;;4.97;;
47617;SDS011;33336;36.728;-4.414;2022-11-12T14:53:00;25.75;;;5.53;;
47617;SDS011;33336;36.728;-4.414;2022-11-12T14:58:10;25.08;;;4.63;;
47617;SDS011;33336;36.728;-4.414;2022-11-12T15:03:16;24.88;;;4.78;;
47617;SDS011;33336;36.728;-4.414;2022-11-12T15:08:31;19.80;;;4.43;;
47617;SDS011;33336;36.728;-4.414;2022-11-12T15:13:37;29.52;;;5.55;;
47617;SDS011;33336;36.728;-4.414;2022-11-12T15:18:43;15.98;;;3.65;;
47617;SDS011;33336;36.728;-4.414;2022-11-12T15:24:03;23.55;;;5.00;;
47617;SDS011;33336;36.728;-4.414;2022-11-12T15:29:20;22.48;;;4.55;;
47617;SDS011;33336;36.728;-4.414;2022-11-12T15:34:33;23.13;;;5.07;;
47617;SDS011;33336;36.728;-4.414;2022-11-12T15:39:47;33.00;;;5.75;;
47617;SDS011;33336;36.728;-4.414;2022-11-12T15:44:56;22.27;;;4.38;;
47617;SDS011;33336;36.728;-4.414;2022-11-12T15:50:03;29.58;;;4.75;;
47617;SDS011;33336;36.728;-4.414;2022-11-12T15:55:18;22.53;;;4.37;;
47617;SDS011;33336;36.728;-4.414;2022-11-12T16:00:24;20.55;;;4.50;;
47617;SDS011;33336;36.728;-4.414;2022-11-12T16:05:32;23.25;;;4.80;;
47617;SDS011;33336;36.728;-4.414;2022-11-12T16:10:35;24.73;;;4.97;;
47617;SDS011;33336;36.728;-4.414;2022-11-12T16:15:40;28.85;;;5.90;;
47617;SDS011;33336;36.728;-4.414;2022-11-12T16:20:43;20.25;;;4.68;;
47617;SDS011;33336;36.728;-4.414;2022-11-12T16:25:47;27.95;;;4.75;;
47617;SDS011;33336;36.728;-4.414;2022-11-12T16:30:51;23.95;;;5.57;;
47617;SDS011;33336;36.728;-4.414;2022-11-12T16:35:55;31.98;;;5.57;;
47617;SDS011;33336;36.728;-4.414;2022-11-12T16:40:57;29.90;;;5.05;;
47617;SDS011;33336;36.728;-4.414;2022-11-12T16:46:02;27.48;;;5.07;;
47617;SDS011;33336;36.728;-4.414;2022-11-12T16:51:15;26.25;;;4.25;;
47617;SDS011;33336;36.728;-4.414;2022-11-12T16:56:20;24.15;;;5.38;;
47617;SDS011;33336;36.728;-4.414;2022-11-12T17:01:26;38.60;;;5.07;;
47617;SDS011;33336;36.728;-4.414;2022-11-12T17:06:31;24.47;;;5.90;;
47617;SDS011;33336;36.728;-4.414;2022-11-12T17:11:36;25.80;;;5.18;;
47617;SDS011;33336;36.728;-4.414;2022-11-12T17:16:41;24.33;;;5.13;;
47617;SDS011;33336;36.728;-4.414;2022-11-12T17:21:44;26.67;;;5.00;;
47617;SDS011;33336;36.728;-4.414;2022-11-12T17:26:48;33.72;;;5.00;;
47617;SDS011;33336;36.728;-4.414;2022-11-12T17:31:52;25.85;;;5.05;;
47617;SDS011;33336;36.728;-4.414;2022-11-12T17:36:56;31.85;;;5.57;;
47617;SDS011;33336;36.728;-4.414;2022-11-12T17:41:58;33.40;;;5.22;;
47617;SDS011;33336;36.728;-4.414;2022-11-12T17:47:03;25.48;;;5.20;;
47617;SDS011;33336;36.728;-4.414;2022-11-12T17:52:06;28.65;;;4.47;;
47617;SDS011;33336;36.728;-4.414;2022-11-12T17:57:10;28.55;;;4.70;;
47617;SDS011;33336;36.728;-4.414;2022-11-12T18:02:14;31.15;;;5.90;;
47617;SDS011;33336;36.728;-4.414;2022-11-12T18:07:18;21.15;;;4.20;;
47617;SDS011;33336;36.728;-4.414;2022-11-12T18:12:20;31.00;;;5.53;;
47617;SDS011;33336;36.728;-4.414;2022-11-12T18:17:25;30.77;;;6.25;;
47617;SDS011;33336;36.728;-4.414;2022-11-12T18:22:28;35.22;;;6.50;;
47617;SDS011;33336;36.728;-4.414;2022-11-12T18:27:31;31.40;;;5.95;;
47617;SDS011;33336;36.728;-4.414;2022-11-12T18:32:35;33.50;;;6.20;;
47617;SDS011;33336;36.728;-4.414;2022-11-12T18:37:41;32.08;;;5.72;;
47617;SDS011;33336;36.728;-4.414;2022-11-12T18:42:43;33.45;;;6.28;;
47617;SDS011;33336;36.728;-4.414;2022-11-12T18:47:48;26.00;;;6.53;;
47617;SDS011;33336;36.728;-4.414;2022-11-12T18:52:51;28.45;;;7.68;;
47617;SDS011;33336;36.728;-4.414;2022-11-12T18:57:55;30.08;;;6.90;;
47617;SDS011;33336;36.728;-4.414;2022-11-12T19:02:59;33.85;;;7.65;;
47617;SDS011;33336;36.728;-4.414;2022-11-12T19:08:03;30.35;;;8.15;;
47617;SDS011;33336;36.728;-4.414;2022-11-12T19:13:06;44.53;;;7.28;;
47617;SDS011;33336;36.728;-4.414;2022-11-12T19:18:12;35.13;;;6.60;;
47617;SDS011;33336;36.728;-4.414;2022-11-12T19:23:15;43.35;;;16.80;;
47617;SDS011;33336;36.728;-4.414;2022-11-12T19:28:18;41.80;;;14.60;;
47617;SDS011;33336;36.728;-4.414;2022-11-12T19:33:22;32.78;;;9.63;;
47617;SDS011;33336;36.728;-4.414;2022-11-12T19:38:26;44.63;;;16.75;;
47617;SDS011;33336;36.728;-4.414;2022-11-12T19:43:28;42.92;;;16.15;;
47617;SDS011;33336;36.728;-4.414;2022-11-12T19:48:33;32.47;;;9.95;;
47617;SDS011;33336;36.728;-4.414;2022-11-12T19:53:36;38.05;;;9.48;;
47617;SDS011;33336;36.728;-4.414;2022-11-12T19:58:43;33.28;;;8.18;;
47617;SDS011;33336;36.728;-4.414;2022-11-12T20:03:48;32.60;;;7.65;;
47617;SDS011;33336;36.728;-4.414;2022-11-12T20:08:52;43.05;;;9.18;;
47617;SDS011;33336;36.728;-4.414;2022-11-12T20:13:55;38.50;;;8.25;;
47617;SDS011;33336;36.728;-4.414;2022-11-12T20:18:59;37.58;;;9.38;;
47617;SDS011;33336;36.728;-4.414;2022-11-12T20:24:03;38.15;;;9.15;;
47617;SDS011;33336;36.728;-4.414;2022-11-12T20:29:07;36.47;;;8.13;;
47617;SDS011;33336;36.728;-4.414;2022-11-12T20:34:11;30.08;;;8.63;;
47617;SDS011;33336;36.728;-4.414;2022-11-12T20:39:15;37.97;;;7.82;;
47617;SDS011;33336;36.728;-4.414;2022-11-12T20:44:17;28.30;;;6.32;;
47617;SDS011;33336;36.728;-4.414;2022-11-12T20:49:22;25.02;;;7.05;;
47617;SDS011;33336;36.728;-4.414;2022-11-12T20:54:25;28.45;;;6.00;;
47617;SDS011;33336;36.728;-4.414;2022-11-12T20:59:28;24.90;;;6.85;;
47617;SDS011;33336;36.728;-4.414;2022-11-12T21:04:33;35.63;;;6.25;;
47617;SDS011;33336;36.728;-4.414;2022-11-12T21:09:37;31.40;;;6.50;;
47617;SDS011;33336;36.728;-4.414;2022-11-12T21:14:39;22.63;;;5.57;;
47617;SDS011;33336;36.728;-4.414;2022-11-12T21:19:44;24.95;;;5.40;;
47617;SDS011;33336;36.728;-4.414;2022-11-12T21:24:47;25.45;;;5.57;;
47617;SDS011;33336;36.728;-4.414;2022-11-12T21:29:51;23.30;;;5.35;;
47617;SDS011;33336;36.728;-4.414;2022-11-12T21:34:55;29.35;;;5.00;;
47617;SDS011;33336;36.728;-4.414;2022-11-12T21:39:59;27.95;;;5.63;;
47617;SDS011;33336;36.728;-4.414;2022-11-12T21:45:01;22.90;;;4.53;;
47617;SDS011;33336;36.728;-4.414;2022-11-12T21:50:07;18.60;;;4.05;;
47617;SDS011;33336;36.728;-4.414;2022-11-12T21:55:11;22.10;;;5.03;;
47617;SDS011;33336;36.728;-4.414;2022-11-12T22:00:14;24.83;;;4.40;;
47617;SDS011;33336;36.728;-4.414;2022-11-12T22:05:20;23.80;;;4.68;;
47617;SDS011;33336;36.728;-4.414;2022-11-12T22:10:24;20.42;;;3.95;;
47617;SDS011;33336;36.728;-4.414;2022-11-12T22:15:26;23.15;;;4.85;;
47617;SDS011;33336;36.728;-4.414;2022-11-12T22:20:31;18.55;;;4.43;;
47617;SDS011;33336;36.728;-4.414;2022-11-12T22:25:34;18.85;;;3.80;;
47617;SDS011;33336;36.728;-4.414;2022-11-12T22:30:36;30.95;;;5.07;;
47617;SDS011;33336;36.728;-4.414;2022-11-12T22:35:40;24.30;;;4.70;;
47617;SDS011;33336;36.728;-4.414;2022-11-12T22:40:44;18.50;;;4.10;;
47617;SDS011;33336;36.728;-4.414;2022-11-12T22:45:46;15.60;;;4.65;;
47617;SDS011;33336;36.728;-4.414;2022-11-12T22:50:56;20.05;;;3.75;;
47617;SDS011;33336;36.728;-4.414;2022-11-12T22:56:00;18.67;;;4.32;;
47617;SDS011;33336;36.728;-4.414;2022-11-12T23:01:05;15.15;;;3.00;;
47617;SDS011;33336;36.728;-4.414;2022-11-12T23:06:11;25.23;;;4.03;;
47617;SDS011;33336;36.728;-4.414;2022-11-12T23:11:16;19.55;;;3.97;;
47617;SDS011;33336;36.728;-4.414;2022-11-12T23:16:20;19.17;;;3.88;;
47617;SDS011;33336;36.728;-4.414;2022-11-12T23:21:27;20.85;;;4.28;;
47617;SDS011;33336;36.728;-4.414;2022-11-12T23:26:30;18.15;;;4.70;;
47617;SDS011;33336;36.728;-4.414;2022-11-12T23:31:33;24.17;;;4.50;;
47617;SDS011;33336;36.728;-4.414;2022-11-12T23:36:37;23.10;;;3.50;;
47617;SDS011;33336;36.728;-4.414;2022-11-12T23:41:41;23.58;;;3.47;;
47617;SDS011;33336;36.728;-4.414;2022-11-12T23:46:44;13.07;;;3.55;;
47617;SDS011;33336;36.728;-4.414;2022-11-12T23:51:49;24.05;;;4.57;;
47617;SDS011;33336;36.728;-4.414;2022-11-12T23:56:51;15.23;;;3.10;;
